Chadstone Weather > Observations for 04/04/21

Select Day:



Observations
Time Temp Hum DP Wind Gust Dir Rain >9am Press
C % C kph kph mm hPa
00:00 23.5 54 13.7 1.6 6.1 NNW 0.0 1008.8
00:10 23.7 54 13.9 2.4 6.1 N 0.0 1008.6
00:20 23.6 54 13.8 0.4 5.0 NW 0.0 1008.4
00:30 23.5 54 13.7 0.3 5.0 N 0.0 1008.5
00:40 23.5 55 14.0 0.4 5.0 NW 0.0 1008.5
00:50 23.3 56 14.0 0.0 1.1 NW 0.0 1008.3
01:00 22.7 57 13.8 0.0 0.0 N 0.0 1008.4
01:10 22.2 59 13.8 0.0 0.0 N 0.0 1008.3
01:20 21.8 62 14.2 0.0 0.0 N 0.0 1008.3
01:30 21.5 63 14.2 0.0 0.0 N 0.0 1008.4
01:40 21.0 63 13.7 0.0 0.0 N 0.0 1008.4
01:50 21.0 63 13.7 0.0 0.0 N 0.0 1008.5
02:00 20.0 67 13.7 0.0 0.0 N 0.0 1006.5
02:10 19.8 69 14.0 0.0 0.0 N 0.0 1007.5
02:20 19.5 69 13.7 0.0 0.0 N 0.0 1007.9
02:30 19.5 70 13.9 0.0 0.0 N 0.0 1007.9
02:40 19.4 70 13.8 0.0 0.0 N 0.0 1006.6
02:50 19.2 70 13.6 0.0 0.0 N 0.0 1007.0
03:00 19.1 71 13.7 0.0 0.0 N 0.0 1007.8
03:10 18.9 72 13.8 0.0 0.0 N 0.0 1006.6
03:20 18.9 73 14.0 0.0 0.0 N 0.0 1007.4
03:30 18.8 73 13.9 0.0 0.0 N 0.0 1006.7
03:40 18.5 73 13.6 0.0 0.0 N 0.0 1007.1
03:50 18.3 74 13.6 0.0 0.0 N 0.0 1006.5
04:00 18.1 74 13.4 0.0 0.0 N 0.0 1006.6
04:10 17.8 74 13.1 0.0 0.0 N 0.0 1006.3
04:20 17.6 74 12.9 0.0 0.0 N 0.0 1006.3
04:30 17.5 75 13.0 0.0 0.0 N 0.0 1006.5
04:40 17.4 75 12.9 0.0 0.0 N 0.0 1006.2
04:50 17.2 76 12.9 0.0 0.0 N 0.0 1006.0
05:00 17.0 76 12.7 0.0 0.0 N 0.0 1006.3
05:10 16.9 78 13.0 0.0 0.0 N 0.0 1006.6
05:20 16.9 78 13.0 0.0 0.0 N 0.0 1006.2
05:30 16.9 79 13.2 0.0 0.0 N 0.0 1006.5
05:40 16.9 79 13.2 0.0 0.0 N 0.0 1006.5
05:50 16.7 79 13.0 0.0 0.0 N 0.0 1006.3
06:00 16.7 79 13.0 0.0 0.0 N 0.0 1006.4
06:10 16.7 80 13.2 0.0 0.0 N 0.0 1006.7
06:20 16.5 80 13.0 0.0 0.0 N 0.0 1006.6
06:30 16.4 80 12.9 0.0 0.0 N 0.0 1006.4
06:40 16.3 81 13.0 0.0 0.0 N 0.0 1006.3
06:50 16.2 82 13.1 0.0 0.0 N 0.0 1006.8
07:00 16.2 82 13.1 0.0 0.0 N 0.0 1006.7
07:10 16.3 82 13.2 0.0 0.0 N 0.0 1006.4
07:20 16.5 83 13.6 0.0 0.0 N 0.0 1006.6
07:30 17.0 82 13.9 0.0 0.0 N 0.0 1006.6
07:40 17.6 82 14.5 0.0 0.0 N 0.0 1006.5
07:50 18.2 80 14.7 0.0 0.0 N 0.0 1006.5
08:00 18.8 79 15.1 0.0 0.0 N 0.0 1006.5
08:10 19.4 77 15.3 0.0 0.0 N 0.0 1007.0
08:20 20.2 73 15.2 0.0 1.1 W 0.0 1006.7
08:30 20.6 71 15.2 0.0 0.0 N 0.0 1006.7
08:40 21.0 69 15.1 0.0 0.0 N 0.0 1006.7
08:50 21.5 68 15.4 0.0 0.0 N 0.0 1006.9
09:00 21.9 66 15.3 0.0 1.1 NW 0.0 1006.5
09:10 22.5 63 15.1 0.0 0.0 N 0.0 1006.8
09:20 23.1 61 15.2 0.0 0.0 N 0.0 1007.7
09:30 23.7 59 15.2 2.3 8.6 WNW 0.0 1008.0
09:40 24.2 56 14.9 2.6 12.2 W 0.0 1008.0
09:50 24.6 55 15.0 1.5 7.2 WNW 0.0 1008.0
10:00 24.5 60 16.2 0.3 8.6 WSW 0.0 1007.9
10:10 24.3 64 17.1 1.5 8.6 W 0.0 1007.9
10:20 24.2 65 17.2 0.8 12.2 W 0.0 1008.0
10:30 24.0 67 17.5 0.4 7.2 SSW 0.0 1008.0
10:40 23.4 70 17.6 0.6 7.2 WSW 0.0 1007.9
10:50 23.0 72 17.7 0.4 7.2 WSW 0.0 1008.1
11:00 23.2 73 18.1 0.1 6.1 SW 0.0 1008.0
11:10 23.1 72 17.8 0.5 6.1 S 0.0 1008.1
11:20 23.3 71 17.8 1.0 6.1 SW 0.0 1008.0
11:30 23.9 69 17.9 0.5 7.2 S 0.0 1008.0
11:40 24.2 67 17.7 0.5 6.1 SW 0.0 1007.9
11:50 24.6 66 17.8 0.3 7.2 SSE 0.0 1008.0
12:00 24.7 65 17.7 0.1 7.2 SW 0.0 1007.8
12:10 25.1 63 17.6 1.3 7.2 NW 0.0 1007.5
12:20 24.9 63 17.4 1.0 8.6 S 0.0 1007.4
12:30 25.0 60 16.7 1.9 9.7 SE 0.0 1007.5
12:40 24.7 62 17.0 0.6 9.7 S 0.0 1007.4
12:50 24.4 64 17.2 0.5 9.7 S 0.0 1007.4
13:00 23.9 65 16.9 3.2 14.8 S 0.0 1007.3
13:10 23.6 66 16.9 1.9 14.8 SE 0.0 1007.1
13:20 23.8 66 17.1 0.6 9.7 S 0.0 1007.1
13:30 24.0 65 17.0 0.1 5.0 SSE 0.0 1007.0
13:40 24.2 64 17.0 0.7 9.7 W 0.0 1006.8
13:50 24.0 64 16.8 1.4 14.8 S 0.0 1006.7
14:00 23.4 65 16.5 2.1 12.2 S 0.0 1006.8
14:10 23.1 66 16.4 2.1 11.2 S 0.0 1006.9
14:20 22.9 68 16.7 2.6 14.8 S 0.0 1006.8
14:30 22.7 67 16.3 2.6 13.3 SE 0.0 1007.0
14:40 22.5 69 16.5 2.4 14.8 SSE 0.0 1007.1
14:50 22.0 70 16.3 3.0 18.4 SSE 0.0 1007.1
15:00 21.7 72 16.4 2.9 18.4 SSW 0.0 1007.4
15:10 21.7 72 16.4 2.4 12.2 SE 0.0 1007.4
15:20 21.6 71 16.1 2.3 8.6 S 0.0 1007.3
15:30 21.7 72 16.4 1.6 15.8 SSW 0.0 1007.5
15:40 21.7 71 16.2 1.9 11.2 SSW 0.0 1007.5
15:50 21.7 71 16.2 1.1 13.3 SSW 0.0 1007.6
16:00 21.7 71 16.2 0.8 13.3 SW 0.0 1007.6
16:10 21.7 71 16.2 1.8 8.6 W 0.0 1007.5
16:20 21.2 71 15.7 2.7 15.8 SSE 0.0 1007.9
16:30 21.0 71 15.6 2.3 13.3 S 0.0 1008.1
16:40 20.9 72 15.7 1.8 11.2 S 0.0 1008.1
16:50 20.7 73 15.7 2.3 11.2 SSE 0.0 1008.3
17:00 20.7 73 15.7 1.0 9.7 WSW 0.0 1008.4
17:10 20.4 73 15.4 1.9 8.6 SSE 0.0 1008.8
17:20 20.3 74 15.5 0.3 9.7 SW 0.0 1008.0
17:30 20.1 74 15.3 1.4 8.6 SW 0.0 1008.0
17:40 19.7 75 15.2 0.6 8.6 S 0.0 1008.1
17:50 19.4 76 15.1 1.0 11.2 S 0.0 1008.1
18:00 19.2 77 15.1 0.6 7.2 SSW 0.0 1008.1
18:10 18.9 78 15.0 1.2 8.6 S 0.0 1008.2
18:20 18.8 78 14.9 0.1 6.1 SSW 0.0 1008.3
18:30 18.6 79 14.9 0.6 8.6 SW 0.0 1008.4
18:40 18.4 78 14.5 0.1 6.1 SW 0.0 1008.4
18:50 18.3 78 14.4 0.0 3.6 S 0.0 1008.4
19:00 18.3 78 14.4 0.1 3.6 S 0.0 1008.6
19:10 18.3 78 14.4 0.2 6.1 SW 0.0 1008.7
19:20 18.4 78 14.5 0.1 3.6 SSW 0.0 1008.6
19:30 18.4 78 14.5 0.1 5.0 SSE 0.0 1008.8
19:40 18.5 78 14.6 0.0 1.1 SW 0.0 1008.8
19:50 18.6 78 14.7 1.6 8.6 SE 0.0 1009.0
20:00 18.5 78 14.6 4.5 15.8 S 0.0 1009.1
20:10 18.1 76 13.8 5.0 15.8 SSW 0.0 1009.2
20:20 17.9 76 13.6 5.1 9.7 SSE 0.0 1009.3
20:30 17.8 76 13.5 4.7 13.3 SSE 0.0 1009.4
20:40 17.8 75 13.3 4.9 14.8 SE 0.0 1009.4
20:50 17.7 74 13.0 3.9 14.8 SSE 0.0 1009.4
21:00 17.7 75 13.2 2.5 15.8 S 0.0 1009.7
21:10 17.8 75 13.3 5.3 15.8 SSE 0.0 1009.7
21:20 17.7 75 13.2 4.5 11.2 SSE 0.0 1009.8
21:30 17.6 75 13.1 4.2 12.2 SSE 0.0 1009.8
21:40 17.5 75 13.0 4.3 13.3 S 0.0 1009.9
21:50 17.5 75 13.0 2.7 11.2 SSE 0.0 1010.0
22:00 17.5 75 13.0 4.7 12.2 SSE 0.0 1010.1
22:10 17.5 75 13.0 4.9 11.2 SSE 0.0 1010.1
22:20 17.5 75 13.0 4.4 11.2 SE 0.0 1010.1
22:30 17.4 74 12.7 3.1 9.7 S 0.0 1010.1
22:40 17.4 74 12.7 3.5 12.2 S 0.0 1010.2
22:50 17.3 74 12.6 4.9 12.2 S 0.0 1010.1
23:00 17.4 74 12.7 2.9 11.2 SSE 0.0 1010.1
23:10 17.4 74 12.7 2.5 7.2 S 0.0 1010.2
23:20 17.4 74 12.7 1.4 7.2 SSE 0.0 1010.3
23:30 17.4 73 12.5 5.4 12.2 SSE 0.0 1010.1
23:40 17.2 73 12.3 2.3 13.3 SSE 0.0 1010.1
23:50 17.2 74 12.5 3.6 8.6 S 0.0 1010.3